sensor_id;sensor_type;location;lat;lon;timestamp;pressure;altitude;pressure_sealevel;temperature;humidity
30021;BME280;16861;52.294;7.760;2022-09-09T00:03:57;99072.84;;;18.54;62.12
30021;BME280;16861;52.294;7.760;2022-09-09T00:06:45;99053.81;;;18.49;62.41
30021;BME280;16861;52.294;7.760;2022-09-09T00:09:19;99058.00;;;18.52;62.55
30021;BME280;16861;52.294;7.760;2022-09-09T00:17:36;99055.66;;;18.48;62.41
30021;BME280;16861;52.294;7.760;2022-09-09T00:28:27;99053.16;;;18.47;62.69
30021;BME280;16861;52.294;7.760;2022-09-09T00:30:55;99053.16;;;18.47;62.66
30021;BME280;16861;52.294;7.760;2022-09-09T00:33:24;99054.13;;;18.46;63.04
30021;BME280;16861;52.294;7.760;2022-09-09T00:35:57;99055.13;;;18.45;63.46
30021;BME280;16861;52.294;7.760;2022-09-09T00:38:37;99055.28;;;18.43;63.31
30021;BME280;16861;52.294;7.760;2022-09-09T00:43:54;99054.97;;;18.46;63.60
30021;BME280;16861;52.294;7.760;2022-09-09T00:52:39;99049.59;;;18.38;64.05
30021;BME280;16861;52.294;7.760;2022-09-09T00:57:51;99038.78;;;18.40;64.20
30021;BME280;16861;52.294;7.760;2022-09-09T01:00:44;99038.25;;;18.36;64.54
30021;BME280;16861;52.294;7.760;2022-09-09T01:03:34;99047.22;;;18.35;64.35
30021;BME280;16861;52.294;7.760;2022-09-09T01:06:29;99043.75;;;18.34;64.55
30021;BME280;16861;52.294;7.760;2022-09-09T01:16:56;99043.59;;;18.36;64.39
30021;BME280;16861;52.294;7.760;2022-09-09T01:25:56;99049.38;;;18.31;65.07
30021;BME280;16861;52.294;7.760;2022-09-09T01:28:19;99044.75;;;18.33;64.50
30021;BME280;16861;52.294;7.760;2022-09-09T01:30:48;99037.72;;;18.32;64.44
30021;BME280;16861;52.294;7.760;2022-09-09T01:33:17;99035.19;;;18.31;64.60
30021;BME280;16861;52.294;7.760;2022-09-09T01:38:17;99040.00;;;18.27;64.79
30021;BME280;16861;52.294;7.760;2022-09-09T01:40:44;99040.31;;;18.24;64.59
30021;BME280;16861;52.294;7.760;2022-09-09T01:43:11;99042.31;;;18.22;65.07
30021;BME280;16861;52.294;7.760;2022-09-09T01:45:39;99041.63;;;18.20;65.06
30021;BME280;16861;52.294;7.760;2022-09-09T01:48:08;99042.63;;;18.19;64.99
30021;BME280;16861;52.294;7.760;2022-09-09T01:50:34;99036.63;;;18.17;64.98
30021;BME280;16861;52.294;7.760;2022-09-09T01:53:01;99041.25;;;18.15;65.25
30021;BME280;16861;52.294;7.760;2022-09-09T01:55:32;99052.91;;;18.14;65.51
30021;BME280;16861;52.294;7.760;2022-09-09T02:01:06;99055.88;;;18.10;65.79
30021;BME280;16861;52.294;7.760;2022-09-09T02:03:36;99059.22;;;18.13;65.39
30021;BME280;16861;52.294;7.760;2022-09-09T02:06:35;99058.81;;;18.07;65.78
30021;BME280;16861;52.294;7.760;2022-09-09T02:09:10;99063.03;;;18.10;65.31
30021;BME280;16861;52.294;7.760;2022-09-09T02:11:38;99070.03;;;18.11;65.14
30021;BME280;16861;52.294;7.760;2022-09-09T02:14:16;99062.44;;;18.06;65.78
30021;BME280;16861;52.294;7.760;2022-09-09T02:16:48;99074.09;;;18.05;65.59
30021;BME280;16861;52.294;7.760;2022-09-09T02:19:35;99072.44;;;18.04;65.89
30021;BME280;16861;52.294;7.760;2022-09-09T02:22:04;99074.94;;;18.06;65.41
30021;BME280;16861;52.294;7.760;2022-09-09T02:24:35;99075.09;;;18.04;65.73
30021;BME280;16861;52.294;7.760;2022-09-09T02:27:04;99074.41;;;18.02;65.29
30021;BME280;16861;52.294;7.760;2022-09-09T02:29:38;99071.72;;;18.02;65.71
30021;BME280;16861;52.294;7.760;2022-09-09T02:32:09;99076.38;;;18.00;65.33
30021;BME280;16861;52.294;7.760;2022-09-09T02:34:44;99076.69;;;17.97;65.47
30021;BME280;16861;52.294;7.760;2022-09-09T02:37:13;99071.50;;;17.95;65.23
30021;BME280;16861;52.294;7.760;2022-09-09T02:39:41;99068.19;;;17.93;65.08
30021;BME280;16861;52.294;7.760;2022-09-09T02:42:08;99067.66;;;17.90;65.25
30021;BME280;16861;52.294;7.760;2022-09-09T02:44:36;99070.63;;;17.87;65.38
30021;BME280;16861;52.294;7.760;2022-09-09T02:53:12;99069.44;;;17.71;66.01
30021;BME280;16861;52.294;7.760;2022-09-09T02:55:48;99066.66;;;17.73;65.79
30021;BME280;16861;52.294;7.760;2022-09-09T02:58:17;99069.44;;;17.71;65.95
30021;BME280;16861;52.294;7.760;2022-09-09T03:00:48;99060.66;;;17.70;65.90
30021;BME280;16861;52.294;7.760;2022-09-09T03:03:16;99067.78;;;17.70;65.80
30021;BME280;16861;52.294;7.760;2022-09-09T03:05:44;99066.13;;;17.69;65.59
30021;BME280;16861;52.294;7.760;2022-09-09T03:08:12;99061.78;;;17.68;65.98
30021;BME280;16861;52.294;7.760;2022-09-09T03:10:39;99074.09;;;17.69;65.73
30021;BME280;16861;52.294;7.760;2022-09-09T03:13:06;99074.09;;;17.69;65.89
30021;BME280;16861;52.294;7.760;2022-09-09T03:15:34;99067.78;;;17.70;66.05
30021;BME280;16861;52.294;7.760;2022-09-09T03:18:01;99069.44;;;17.71;66.15
30021;BME280;16861;52.294;7.760;2022-09-09T03:20:29;99073.81;;;17.72;66.16
30021;BME280;16861;52.294;7.760;2022-09-09T03:22:57;99076.16;;;17.75;66.04
30021;BME280;16861;52.294;7.760;2022-09-09T03:25:25;99068.88;;;17.77;66.01
30021;BME280;16861;52.294;7.760;2022-09-09T03:27:53;99067.16;;;17.76;66.03
30021;BME280;16861;52.294;7.760;2022-09-09T03:30:22;99066.22;;;17.77;65.88
30021;BME280;16861;52.294;7.760;2022-09-09T03:32:49;99068.16;;;17.75;66.21
30021;BME280;16861;52.294;7.760;2022-09-09T03:35:16;99065.50;;;17.75;66.09
30021;BME280;16861;52.294;7.760;2022-09-09T03:37:43;99070.81;;;17.75;65.90
30021;BME280;16861;52.294;7.760;2022-09-09T03:40:10;99073.63;;;17.74;66.19
30021;BME280;16861;52.294;7.760;2022-09-09T03:42:37;99078.13;;;17.73;66.44
30021;BME280;16861;52.294;7.760;2022-09-09T03:45:05;99079.13;;;17.72;66.15
30021;BME280;16861;52.294;7.760;2022-09-09T03:47:32;99073.81;;;17.72;66.30
30021;BME280;16861;52.294;7.760;2022-09-09T03:49:59;99075.63;;;17.71;66.31
30021;BME280;16861;52.294;7.760;2022-09-09T03:52:26;99071.81;;;17.74;66.46
30021;BME280;16861;52.294;7.760;2022-09-09T03:54:53;99076.16;;;17.75;66.23
30021;BME280;16861;52.294;7.760;2022-09-09T03:57:20;99063.53;;;17.77;66.37
30021;BME280;16861;52.294;7.760;2022-09-09T03:59:48;99072.06;;;17.81;66.38
30021;BME280;16861;52.294;7.760;2022-09-09T04:02:14;99059.44;;;17.83;66.50
30021;BME280;16861;52.294;7.760;2022-09-09T04:04:42;99063.78;;;17.84;66.19
30021;BME280;16861;52.294;7.760;2022-09-09T04:07:08;99061.94;;;17.84;66.20
30021;BME280;16861;52.294;7.760;2022-09-09T04:09:35;99060.13;;;17.85;66.38
30021;BME280;16861;52.294;7.760;2022-09-09T04:12:01;99055.78;;;17.84;66.10
30021;BME280;16861;52.294;7.760;2022-09-09T04:14:28;99051.28;;;17.84;66.04
30021;BME280;16861;52.294;7.760;2022-09-09T04:16:55;99056.59;;;17.84;66.17
30021;BME280;16861;52.294;7.760;2022-09-09T04:19:23;99048.78;;;17.83;66.04
30021;BME280;16861;52.294;7.760;2022-09-09T04:21:50;99048.78;;;17.83;65.91
30021;BME280;16861;52.294;7.760;2022-09-09T04:24:18;99060.25;;;17.83;66.03
30021;BME280;16861;52.294;7.760;2022-09-09T04:26:45;99057.59;;;17.83;65.90
30021;BME280;16861;52.294;7.760;2022-09-09T04:29:11;99065.59;;;17.83;66.13
30021;BME280;16861;52.294;7.760;2022-09-09T04:31:38;99063.06;;;17.82;65.79
30021;BME280;16861;52.294;7.760;2022-09-09T04:34:11;99065.06;;;17.80;66.24
30021;BME280;16861;52.294;7.760;2022-09-09T04:36:37;99062.53;;;17.78;66.03
30021;BME280;16861;52.294;7.760;2022-09-09T04:39:07;99059.19;;;17.76;65.89
30021;BME280;16861;52.294;7.760;2022-09-09T04:41:33;99065.66;;;17.74;66.10
30021;BME280;16861;52.294;7.760;2022-09-09T04:44:01;99068.50;;;17.72;66.09
30021;BME280;16861;52.294;7.760;2022-09-09T04:46:27;99068.50;;;17.72;66.36
30021;BME280;16861;52.294;7.760;2022-09-09T04:48:54;99063.31;;;17.70;66.54
30021;BME280;16861;52.294;7.760;2022-09-09T04:51:21;99073.97;;;17.70;66.52
30021;BME280;16861;52.294;7.760;2022-09-09T04:53:47;99075.78;;;17.70;66.50
30021;BME280;16861;52.294;7.760;2022-09-09T04:56:16;99069.59;;;17.69;66.65
30021;BME280;16861;52.294;7.760;2022-09-09T04:58:43;99069.59;;;17.69;66.70
30021;BME280;16861;52.294;7.760;2022-09-09T05:01:15;99067.13;;;17.68;66.83
30021;BME280;16861;52.294;7.760;2022-09-09T05:03:43;99072.25;;;17.69;66.68
30021;BME280;16861;52.294;7.760;2022-09-09T05:06:16;99075.09;;;17.68;66.83
30021;BME280;16861;52.294;7.760;2022-09-09T05:08:43;99083.75;;;17.70;66.91
30021;BME280;16861;52.294;7.760;2022-09-09T05:11:18;99079.56;;;17.67;67.20
30021;BME280;16861;52.294;7.760;2022-09-09T05:13:46;99082.91;;;17.69;66.97
30021;BME280;16861;52.294;7.760;2022-09-09T05:16:13;99086.41;;;17.70;66.75
30021;BME280;16861;52.294;7.760;2022-09-09T05:18:40;99080.09;;;17.71;66.78
30021;BME280;16861;52.294;7.760;2022-09-09T05:21:13;99082.75;;;17.71;66.81
30021;BME280;16861;52.294;7.760;2022-09-09T05:23:44;99078.44;;;17.70;66.79
30021;BME280;16861;52.294;7.760;2022-09-09T05:26:14;99074.09;;;17.69;66.91
30021;BME280;16861;52.294;7.760;2022-09-09T05:28:43;99066.13;;;17.69;66.88
30021;BME280;16861;52.294;7.760;2022-09-09T05:31:11;99067.94;;;17.68;66.87
30021;BME280;16861;52.294;7.760;2022-09-09T05:33:40;99063.47;;;17.69;66.66
30021;BME280;16861;52.294;7.760;2022-09-09T05:36:13;99068.09;;;17.67;66.81
30021;BME280;16861;52.294;7.760;2022-09-09T05:38:41;99066.94;;;17.69;66.87
30021;BME280;16861;52.294;7.760;2022-09-09T05:41:09;99069.59;;;17.69;67.09
30021;BME280;16861;52.294;7.760;2022-09-09T05:43:37;99065.97;;;17.70;67.08
30021;BME280;16861;52.294;7.760;2022-09-09T05:46:06;99069.31;;;17.73;67.54
30021;BME280;16861;52.294;7.760;2022-09-09T05:48:38;99080.66;;;17.75;67.58
30021;BME280;16861;52.294;7.760;2022-09-09T05:51:07;99074.88;;;17.79;67.46
30021;BME280;16861;52.294;7.760;2022-09-09T05:53:34;99085.22;;;17.82;67.39
30021;BME280;16861;52.294;7.760;2022-09-09T05:56:09;99088.72;;;17.83;67.68
30021;BME280;16861;52.294;7.760;2022-09-09T05:58:40;99082.78;;;17.89;67.40
30021;BME280;16861;52.294;7.760;2022-09-09T06:01:18;99073.81;;;17.90;68.00
30021;BME280;16861;52.294;7.760;2022-09-09T06:03:47;99077.69;;;17.96;67.66
30021;BME280;16861;52.294;7.760;2022-09-09T06:06:18;99077.53;;;17.97;67.64
30021;BME280;16861;52.294;7.760;2022-09-09T06:08:48;99076.25;;;18.02;67.30
30021;BME280;16861;52.294;7.760;2022-09-09T06:11:22;99071.72;;;18.02;67.55
30021;BME280;16861;52.294;7.760;2022-09-09T06:13:49;99067.78;;;18.06;67.55
30021;BME280;16861;52.294;7.760;2022-09-09T06:16:24;99065.13;;;18.06;67.47
30021;BME280;16861;52.294;7.760;2022-09-09T06:18:52;99070.03;;;18.11;67.36
30021;BME280;16861;52.294;7.760;2022-09-09T06:23:48;99067.72;;;18.16;67.27
30021;BME280;16861;52.294;7.760;2022-09-09T06:26:17;99069.41;;;18.17;67.60
30021;BME280;16861;52.294;7.760;2022-09-09T06:28:49;99064.78;;;18.19;67.57
30021;BME280;16861;52.294;7.760;2022-09-09T06:31:17;99068.81;;;18.23;67.59
30021;BME280;16861;52.294;7.760;2022-09-09T06:33:53;99073.81;;;18.27;67.46
30021;BME280;16861;52.294;7.760;2022-09-09T06:36:23;99070.00;;;18.29;67.23
30021;BME280;16861;52.294;7.760;2022-09-09T06:38:50;99078.53;;;18.33;67.01
30021;BME280;16861;52.294;7.760;2022-09-09T06:41:19;99072.34;;;18.32;67.47
30021;BME280;16861;52.294;7.760;2022-09-09T06:43:46;99074.72;;;18.35;67.23
30021;BME280;16861;52.294;7.760;2022-09-09T06:48:41;99077.88;;;18.39;67.20
30021;BME280;16861;52.294;7.760;2022-09-09T06:51:16;99083.06;;;18.41;67.14
30021;BME280;16861;52.294;7.760;2022-09-09T06:53:45;99087.94;;;18.45;67.42
30021;BME280;16861;52.294;7.760;2022-09-09T06:56:29;99085.28;;;18.45;67.42
30021;BME280;16861;52.294;7.760;2022-09-09T06:58:57;99084.66;;;18.52;67.03
30021;BME280;16861;52.294;7.760;2022-09-09T07:01:26;99085.19;;;18.55;67.22
30021;BME280;16861;52.294;7.760;2022-09-09T07:03:55;99079.53;;;18.58;67.03
30021;BME280;16861;52.294;7.760;2022-09-09T07:06:24;99083.69;;;18.61;67.18
30021;BME280;16861;52.294;7.760;2022-09-09T07:08:52;99078.06;;;18.64;67.34
30021;BME280;16861;52.294;7.760;2022-09-09T07:11:24;99076.75;;;18.68;67.24
30021;BME280;16861;52.294;7.760;2022-09-09T07:13:52;99076.31;;;18.73;67.28
30021;BME280;16861;52.294;7.760;2022-09-09T07:16:20;99084.50;;;18.80;67.50
30021;BME280;16861;52.294;7.760;2022-09-09T07:18:49;99086.38;;;18.87;66.97
30021;BME280;16861;52.294;7.760;2022-09-09T07:21:17;99080.59;;;18.92;67.22
30021;BME280;16861;52.294;7.760;2022-09-09T07:23:43;99079.94;;;18.98;67.05
30021;BME280;16861;52.294;7.760;2022-09-09T07:26:13;99073.13;;;19.04;66.98
30021;BME280;16861;52.294;7.760;2022-09-09T07:28:40;99082.03;;;19.13;66.80
30021;BME280;16861;52.294;7.760;2022-09-09T07:31:13;99084.22;;;19.18;66.22
30021;BME280;16861;52.294;7.760;2022-09-09T07:33:44;99085.25;;;19.25;66.44
30021;BME280;16861;52.294;7.760;2022-09-09T07:38:44;99091.28;;;19.35;66.11
30021;BME280;16861;52.294;7.760;2022-09-09T07:41:15;99092.66;;;19.39;66.08
30021;BME280;16861;52.294;7.760;2022-09-09T07:43:45;99101.00;;;19.45;66.18
30021;BME280;16861;52.294;7.760;2022-09-09T07:46:13;99101.19;;;19.51;66.17
30021;BME280;16861;52.294;7.760;2022-09-09T07:48:54;99092.16;;;19.52;65.39
30021;BME280;16861;52.294;7.760;2022-09-09T07:51:31;99104.88;;;19.59;65.25
30021;BME280;16861;52.294;7.760;2022-09-09T07:54:00;99105.22;;;19.64;65.92
30021;BME280;16861;52.294;7.760;2022-09-09T07:56:29;99094.38;;;19.65;65.31
30021;BME280;16861;52.294;7.760;2022-09-09T07:58:59;99096.06;;;19.66;65.57
30021;BME280;16861;52.294;7.760;2022-09-09T08:01:29;99093.38;;;19.66;65.58
30021;BME280;16861;52.294;7.760;2022-09-09T08:03:59;99097.72;;;19.67;65.58
30021;BME280;16861;52.294;7.760;2022-09-09T08:06:29;99100.38;;;19.67;65.01
30021;BME280;16861;52.294;7.760;2022-09-09T08:08:56;99103.06;;;19.67;65.32
30021;BME280;16861;52.294;7.760;2022-09-09T08:11:24;99102.25;;;19.67;65.43
30021;BME280;16861;52.294;7.760;2022-09-09T08:13:52;99106.72;;;19.66;65.32
30021;BME280;16861;52.294;7.760;2022-09-09T08:16:23;99102.41;;;19.65;65.76
30021;BME280;16861;52.294;7.760;2022-09-09T08:18:51;99097.72;;;19.67;65.55
30021;BME280;16861;52.294;7.760;2022-09-09T08:21:21;99104.75;;;19.69;65.73
30021;BME280;16861;52.294;7.760;2022-09-09T08:23:50;99100.06;;;19.71;65.28
30021;BME280;16861;52.294;7.760;2022-09-09T08:26:26;99098.09;;;19.73;65.08
30021;BME280;16861;52.294;7.760;2022-09-09T08:28:55;99100.56;;;19.74;65.28
30021;BME280;16861;52.294;7.760;2022-09-09T08:31:30;99103.06;;;19.76;65.33
30021;BME280;16861;52.294;7.760;2022-09-09T08:33:58;99102.91;;;19.77;64.88
30021;BME280;16861;52.294;7.760;2022-09-09T08:36:27;99117.94;;;19.78;64.95
30021;BME280;16861;52.294;7.760;2022-09-09T08:38:56;99105.44;;;19.79;65.22
30021;BME280;16861;52.294;7.760;2022-09-09T08:52:23;99116.00;;;19.97;64.94
30021;BME280;16861;52.294;7.760;2022-09-09T08:54:52;99117.69;;;20.07;65.13
30021;BME280;16861;52.294;7.760;2022-09-09T08:57:23;99117.03;;;20.13;64.96
30021;BME280;16861;52.294;7.760;2022-09-09T08:59:54;99114.34;;;20.21;65.09
30021;BME280;16861;52.294;7.760;2022-09-09T09:02:40;99113.72;;;20.27;64.37
30021;BME280;16861;52.294;7.760;2022-09-09T09:05:46;99119.03;;;20.36;64.24
30021;BME280;16861;52.294;7.760;2022-09-09T09:08:31;99122.38;;;20.46;64.55
30021;BME280;16861;52.294;7.760;2022-09-09T09:11:00;99133.41;;;20.60;65.18
30021;BME280;16861;52.294;7.760;2022-09-09T09:13:50;99125.88;;;20.63;64.29
30021;BME280;16861;52.294;7.760;2022-09-09T09:16:23;99134.88;;;20.79;64.14
30021;BME280;16861;52.294;7.760;2022-09-09T09:18:51;99136.56;;;20.88;63.54
30021;BME280;16861;52.294;7.760;2022-09-09T09:21:21;99126.66;;;20.97;63.75
30021;BME280;16861;52.294;7.760;2022-09-09T09:23:58;99131.53;;;21.02;62.01
30021;BME280;16861;52.294;7.760;2022-09-09T09:26:35;99130.81;;;21.08;61.77
30021;BME280;16861;52.294;7.760;2022-09-09T09:29:14;99124.47;;;21.17;62.08
30021;BME280;16861;52.294;7.760;2022-09-09T09:31:53;99125.41;;;21.25;62.32
30021;BME280;16861;52.294;7.760;2022-09-09T09:34:22;99125.06;;;21.36;62.49
30021;BME280;16861;52.294;7.760;2022-09-09T09:36:57;99127.69;;;21.44;61.31
30021;BME280;16861;52.294;7.760;2022-09-09T09:39:30;99123.31;;;21.52;60.89
30021;BME280;16861;52.294;7.760;2022-09-09T09:42:17;99127.47;;;21.63;61.63
30021;BME280;16861;52.294;7.760;2022-09-09T09:44:49;99116.19;;;21.67;61.28
30021;BME280;16861;52.294;7.760;2022-09-09T09:47:20;99106.81;;;21.71;60.21
30021;BME280;16861;52.294;7.760;2022-09-09T09:49:54;99107.13;;;21.77;60.02
30021;BME280;16861;52.294;7.760;2022-09-09T09:52:29;99109.66;;;21.78;59.35
30021;BME280;16861;52.294;7.760;2022-09-09T09:54:58;99113.47;;;21.84;60.04
30021;BME280;16861;52.294;7.760;2022-09-09T09:57:33;99108.75;;;21.86;60.01
30021;BME280;16861;52.294;7.760;2022-09-09T10:00:12;99105.09;;;21.87;59.68
30021;BME280;16861;52.294;7.760;2022-09-09T10:02:42;99105.72;;;21.89;59.46
30021;BME280;16861;52.294;7.760;2022-09-09T10:05:24;99122.81;;;21.88;58.73
30021;BME280;16861;52.294;7.760;2022-09-09T10:08:03;99114.78;;;21.88;58.75
30021;BME280;16861;52.294;7.760;2022-09-09T10:13:39;99116.63;;;21.87;57.36
30021;BME280;16861;52.294;7.760;2022-09-09T10:27:29;99107.66;;;22.81;56.87
30021;BME280;16861;52.294;7.760;2022-09-09T10:30:10;99107.69;;;22.96;55.29
30021;BME280;16861;52.294;7.760;2022-09-09T10:35:35;99105.44;;;23.14;54.32
30021;BME280;16861;52.294;7.760;2022-09-09T10:38:30;99106.75;;;23.19;54.62
30021;BME280;16861;52.294;7.760;2022-09-09T10:41:12;99115.16;;;23.30;54.65
30021;BME280;16861;52.294;7.760;2022-09-09T10:55:18;99098.34;;;23.37;52.83
30021;BME280;16861;52.294;7.760;2022-09-09T10:57:50;99104.91;;;23.34;54.20
30021;BME280;16861;52.294;7.760;2022-09-09T11:00:23;99111.47;;;23.32;53.46
30021;BME280;16861;52.294;7.760;2022-09-09T11:02:59;99101.47;;;23.25;53.31
30021;BME280;16861;52.294;7.760;2022-09-09T11:05:42;99094.19;;;23.34;53.04
30021;BME280;16861;52.294;7.760;2022-09-09T11:08:14;99099.09;;;23.67;55.21
30021;BME280;16861;52.294;7.760;2022-09-09T11:13:35;99102.19;;;24.52;52.17
30021;BME280;16861;52.294;7.760;2022-09-09T11:19:16;99102.44;;;24.85;49.77
30021;BME280;16861;52.294;7.760;2022-09-09T11:21:48;99098.66;;;24.80;49.48
30021;BME280;16861;52.294;7.760;2022-09-09T11:24:40;99104.13;;;24.65;49.93
30021;BME280;16861;52.294;7.760;2022-09-09T11:27:09;99087.59;;;24.68;50.85
30021;BME280;16861;52.294;7.760;2022-09-09T11:32:37;99091.66;;;24.57;49.56
30021;BME280;16861;52.294;7.760;2022-09-09T11:38:11;99111.44;;;24.42;47.73
30021;BME280;16861;52.294;7.760;2022-09-09T11:40:41;99106.44;;;24.39;48.87
30021;BME280;16861;52.294;7.760;2022-09-09T11:45:36;99106.50;;;24.24;50.38
30021;BME280;16861;52.294;7.760;2022-09-09T11:48:04;99116.09;;;24.33;50.42
30021;BME280;16861;52.294;7.760;2022-09-09T11:50:35;99105.75;;;24.59;50.93
30021;BME280;16861;52.294;7.760;2022-09-09T11:53:05;99107.69;;;24.94;50.23
30021;BME280;16861;52.294;7.760;2022-09-09T11:55:34;99105.81;;;25.36;52.32
30021;BME280;16861;52.294;7.760;2022-09-09T11:58:05;99100.81;;;25.89;51.31
30021;BME280;16861;52.294;7.760;2022-09-09T12:00:33;99087.41;;;26.50;51.66
30021;BME280;16861;52.294;7.760;2022-09-09T12:03:01;99095.81;;;27.14;50.88
30021;BME280;16861;52.294;7.760;2022-09-09T12:05:57;99098.31;;;27.68;46.72
30021;BME280;16861;52.294;7.760;2022-09-09T12:08:27;99086.22;;;28.03;45.38
30021;BME280;16861;52.294;7.760;2022-09-09T12:10:57;99087.53;;;28.19;44.35
30021;BME280;16861;52.294;7.760;2022-09-09T12:13:27;99089.22;;;28.20;44.03
30021;BME280;16861;52.294;7.760;2022-09-09T12:15:58;99085.16;;;28.11;43.40
30021;BME280;16861;52.294;7.760;2022-09-09T12:18:32;99087.97;;;27.91;43.44
30021;BME280;16861;52.294;7.760;2022-09-09T12:21:14;99084.91;;;27.80;44.06
30021;BME280;16861;52.294;7.760;2022-09-09T12:23:51;99089.94;;;27.77;44.12
30021;BME280;16861;52.294;7.760;2022-09-09T12:29:11;99076.63;;;28.07;43.15
30021;BME280;16861;52.294;7.760;2022-09-09T12:34:41;99071.63;;;28.37;43.06
30021;BME280;16861;52.294;7.760;2022-09-09T12:37:18;99070.66;;;28.49;42.22
30021;BME280;16861;52.294;7.760;2022-09-09T12:39:52;99067.69;;;28.58;41.91
30021;BME280;16861;52.294;7.760;2022-09-09T12:42:21;99057.19;;;28.68;42.66
30021;BME280;16861;52.294;7.760;2022-09-09T12:44:56;99076.44;;;28.79;40.28
30021;BME280;16861;52.294;7.760;2022-09-09T12:49:56;99054.69;;;28.85;43.24
30021;BME280;16861;52.294;7.760;2022-09-09T12:52:27;99070.22;;;28.97;40.79
30021;BME280;16861;52.294;7.760;2022-09-09T12:54:58;99055.53;;;29.05;41.51
30021;BME280;16861;52.294;7.760;2022-09-09T12:57:33;99059.75;;;29.00;39.26
30021;BME280;16861;52.294;7.760;2022-09-09T13:00:06;99053.97;;;28.97;41.14
30021;BME280;16861;52.294;7.760;2022-09-09T13:02:35;99053.97;;;28.97;42.08
30021;BME280;16861;52.294;7.760;2022-09-09T13:05:26;99056.53;;;28.92;40.54
30021;BME280;16861;52.294;7.760;2022-09-09T13:08:04;99060.94;;;28.86;40.13
30021;BME280;16861;52.294;7.760;2022-09-09T13:10:36;99054.00;;;28.71;39.57
30021;BME280;16861;52.294;7.760;2022-09-09T13:13:26;99057.97;;;28.50;39.85
30021;BME280;16861;52.294;7.760;2022-09-09T13:15:58;99057.09;;;28.31;40.30
30021;BME280;16861;52.294;7.760;2022-09-09T13:18:35;99062.28;;;28.07;39.58
30021;BME280;16861;52.294;7.760;2022-09-09T13:21:04;99059.00;;;27.98;40.49
30021;BME280;16861;52.294;7.760;2022-09-09T13:23:33;99059.94;;;27.85;40.04
30021;BME280;16861;52.294;7.760;2022-09-09T13:26:04;99056.63;;;27.83;40.76
30021;BME280;16861;52.294;7.760;2022-09-09T13:28:32;99046.69;;;28.02;42.50
30021;BME280;16861;52.294;7.760;2022-09-09T13:31:18;99044.13;;;28.40;40.62
30021;BME280;16861;52.294;7.760;2022-09-09T13:33:45;99050.69;;;28.88;41.68
30021;BME280;16861;52.294;7.760;2022-09-09T13:36:12;99052.09;;;29.16;39.54
30021;BME280;16861;52.294;7.760;2022-09-09T13:38:57;99042.19;;;29.22;37.41
30021;BME280;16861;52.294;7.760;2022-09-09T13:41:30;99047.06;;;29.32;38.06
30021;BME280;16861;52.294;7.760;2022-09-09T13:43:58;99039.16;;;29.49;39.38
30021;BME280;16861;52.294;7.760;2022-09-09T13:46:38;99039.34;;;29.78;39.40
30021;BME280;16861;52.294;7.760;2022-09-09T13:51:38;99044.53;;;30.70;37.98
30021;BME280;16861;52.294;7.760;2022-09-09T13:54:06;99048.84;;;31.07;36.89
30021;BME280;16861;52.294;7.760;2022-09-09T13:56:36;99047.22;;;31.35;37.36
30021;BME280;16861;52.294;7.760;2022-09-09T13:59:05;99047.13;;;31.59;36.46
30021;BME280;16861;52.294;7.760;2022-09-09T14:01:31;99055.16;;;31.83;35.77
30021;BME280;16861;52.294;7.760;2022-09-09T14:04:01;99039.50;;;32.07;34.96
30021;BME280;16861;52.294;7.760;2022-09-09T14:06:27;99027.88;;;32.29;35.14
30021;BME280;16861;52.294;7.760;2022-09-09T14:08:55;99034.81;;;32.37;33.97
30021;BME280;16861;52.294;7.760;2022-09-09T14:11:22;99034.31;;;32.23;33.16
30021;BME280;16861;52.294;7.760;2022-09-09T14:13:48;99036.56;;;31.92;32.85
30021;BME280;16861;52.294;7.760;2022-09-09T14:16:18;99051.72;;;31.41;32.29
30021;BME280;16861;52.294;7.760;2022-09-09T14:18:45;99071.69;;;30.82;35.09
30021;BME280;16861;52.294;7.760;2022-09-09T14:21:12;99081.75;;;30.03;35.55
30021;BME280;16861;52.294;7.760;2022-09-09T14:23:38;99091.00;;;29.03;36.68
30021;BME280;16861;52.294;7.760;2022-09-09T14:26:06;99091.88;;;27.95;37.85
30021;BME280;16861;52.294;7.760;2022-09-09T14:28:33;99103.94;;;26.94;39.28
30021;BME280;16861;52.294;7.760;2022-09-09T14:31:20;99090.88;;;25.96;41.29
30021;BME280;16861;52.294;7.760;2022-09-09T14:33:47;99086.28;;;25.21;42.89
30021;BME280;16861;52.294;7.760;2022-09-09T14:36:13;99085.72;;;24.62;44.69
30021;BME280;16861;52.294;7.760;2022-09-09T14:38:41;99089.66;;;24.15;45.88
30021;BME280;16861;52.294;7.760;2022-09-09T14:41:14;99082.84;;;23.76;47.94
30021;BME280;16861;52.294;7.760;2022-09-09T14:43:43;99090.25;;;23.52;48.36
30021;BME280;16861;52.294;7.760;2022-09-09T14:46:12;99087.31;;;23.32;49.93
30021;BME280;16861;52.294;7.760;2022-09-09T14:48:39;99092.28;;;23.20;50.03
30021;BME280;16861;52.294;7.760;2022-09-09T14:51:18;99091.94;;;23.08;51.02
30021;BME280;16861;52.294;7.760;2022-09-09T14:53:46;99098.59;;;22.97;50.28
30021;BME280;16861;52.294;7.760;2022-09-09T14:56:15;99111.03;;;22.83;50.50
30021;BME280;16861;52.294;7.760;2022-09-09T14:58:43;99102.09;;;22.67;49.96
30021;BME280;16861;52.294;7.760;2022-09-09T15:01:16;99101.22;;;22.51;50.55
30021;BME280;16861;52.294;7.760;2022-09-09T15:03:50;99105.91;;;22.34;51.07
30021;BME280;16861;52.294;7.760;2022-09-09T15:06:17;99099.47;;;22.20;50.77
30021;BME280;16861;52.294;7.760;2022-09-09T15:08:45;99102.25;;;22.04;51.46
30021;BME280;16861;52.294;7.760;2022-09-09T15:11:13;99096.66;;;21.90;52.16
30021;BME280;16861;52.294;7.760;2022-09-09T15:13:42;99104.47;;;21.77;52.57
30021;BME280;16861;52.294;7.760;2022-09-09T15:16:14;99102.34;;;21.64;53.56
30021;BME280;16861;52.294;7.760;2022-09-09T15:18:41;99097.03;;;21.55;53.13
30021;BME280;16861;52.294;7.760;2022-09-09T15:21:17;99107.09;;;21.45;54.42
30021;BME280;16861;52.294;7.760;2022-09-09T15:23:45;99110.50;;;21.39;54.09
30021;BME280;16861;52.294;7.760;2022-09-09T15:26:14;99107.66;;;21.32;54.24
30021;BME280;16861;52.294;7.760;2022-09-09T15:28:43;99099.50;;;21.25;54.25